createdAt,value
2023-05-21T00:02:52.715Z,100512.78
2023-05-21T00:05:55.246Z,100522.50
2023-05-21T00:08:57.636Z,100518.97
2023-05-21T00:12:00.113Z,100521.63
2023-05-21T00:15:02.749Z,100511.00
2023-05-21T00:18:05.804Z,100517.16
2023-05-21T00:21:08.365Z,100512.75
2023-05-21T00:24:10.892Z,100512.78
2023-05-21T00:27:13.908Z,100521.56
2023-05-21T00:30:17.048Z,100515.41
2023-05-21T00:33:21.870Z,100516.28
2023-05-21T00:36:24.330Z,100517.19
2023-05-21T00:39:26.942Z,100515.44
2023-05-21T00:42:30.948Z,100506.63
2023-05-21T00:45:33.670Z,100508.38
2023-05-21T00:48:38.180Z,100518.06
2023-05-21T00:51:40.734Z,100510.16
2023-05-21T00:54:43.150Z,100508.38
2023-05-21T00:57:46.210Z,100511.88
2023-05-21T01:00:48.906Z,100505.69
2023-05-21T01:03:54.528Z,100500.41
2023-05-21T01:06:58.644Z,100509.19
2023-05-21T01:10:05.445Z,100506.47
2023-05-21T01:13:08.464Z,100501.19
2023-05-21T01:16:13.079Z,100504.72
2023-05-21T01:19:17.785Z,100501.19
2023-05-21T01:22:21.436Z,100493.28
2023-05-21T01:25:24.323Z,100502.09
2023-05-21T01:28:26.733Z,100500.34
2023-05-21T01:31:40.536Z,100503.88
2023-05-21T01:34:56.934Z,100508.25
2023-05-21T01:38:12.544Z,100502.97
2023-05-21T01:41:15.363Z,100509.97
2023-05-21T01:44:18.530Z,100509.97
2023-05-21T01:47:25.075Z,100497.66
2023-05-21T01:50:28.173Z,100498.53
2023-05-21T01:53:31.235Z,100495.03
2023-05-21T01:56:34.033Z,100496.75
2023-05-21T01:59:36.775Z,100499.41
2023-05-21T02:02:39.317Z,100505.53
2023-05-21T02:05:44.104Z,100504.66
2023-05-21T02:08:46.772Z,100506.41
2023-05-21T02:11:49.142Z,100499.34
2023-05-21T02:14:51.906Z,100498.50
2023-05-21T02:17:54.391Z,100494.06
2023-05-21T02:20:57.025Z,100502.00
2023-05-21T02:23:59.636Z,100489.69
2023-05-21T02:27:03.004Z,100497.59
2023-05-21T02:30:09.730Z,100495.81
2023-05-21T02:33:14.424Z,100499.31
2023-05-21T02:36:19.106Z,100490.53
2023-05-21T02:39:21.786Z,100499.31
2023-05-21T02:42:24.708Z,100492.25
2023-05-21T02:45:27.292Z,100487.78
2023-05-21T02:48:30.873Z,100497.47
2023-05-21T02:51:33.578Z,100499.22
2023-05-21T02:54:36.108Z,100501.78
2023-05-21T02:57:38.591Z,100499.13
2023-05-21T03:00:41.739Z,100499.13
2023-05-21T03:03:45.042Z,100486.78
2023-05-21T03:06:49.094Z,100481.53
2023-05-21T03:09:51.660Z,100489.44
2023-05-21T03:12:54.979Z,100477.16
2023-05-21T03:15:58.036Z,100471.88
2023-05-21T03:19:01.339Z,100483.34
2023-05-21T03:22:06.098Z,100478.91
2023-05-21T03:25:12.542Z,100480.72
2023-05-21T03:28:15.146Z,100479.81
2023-05-21T03:31:23.913Z,100481.63
2023-05-21T03:34:39.670Z,100488.78
2023-05-21T03:37:42.082Z,100484.41
2023-05-21T03:40:45.022Z,100488.78
2023-05-21T03:43:47.833Z,100490.53
2023-05-21T03:46:50.346Z,100494.97
2023-05-21T03:49:57.250Z,100500.28
2023-05-21T03:52:59.714Z,100504.72
2023-05-21T03:56:02.225Z,100510.00
2023-05-21T03:59:06.627Z,100511.78
2023-05-21T04:02:08.985Z,100521.50
2023-05-21T04:05:11.468Z,100514.47
2023-05-21T04:08:14.064Z,100513.63
2023-05-21T04:11:17.053Z,100520.72
2023-05-21T04:14:19.661Z,100520.72
2023-05-21T04:17:22.217Z,100513.69
2023-05-21T04:20:26.009Z,100518.97
2023-05-21T04:23:28.671Z,100524.28
2023-05-21T04:26:35.804Z,100518.06
2023-05-21T04:29:43.803Z,100518.97
2023-05-21T04:32:48.279Z,100518.09
2023-05-21T04:35:51.585Z,100518.97
2023-05-21T04:38:54.197Z,100514.53
2023-05-21T04:41:57.359Z,100512.78
2023-05-21T04:45:01.341Z,100511.03
2023-05-21T04:48:06.768Z,100504.84
2023-05-21T04:51:09.264Z,100505.72
2023-05-21T04:54:11.809Z,100507.47
2023-05-21T04:57:15.116Z,100498.63
2023-05-21T05:00:17.821Z,100502.16
2023-05-21T05:03:21.494Z,100495.94
2023-05-21T05:06:26.037Z,100493.31
2023-05-21T05:09:31.628Z,100503.00
2023-05-21T05:12:37.868Z,100506.53
2023-05-21T05:15:41.273Z,100502.09
2023-05-21T05:18:44.403Z,100503.84
2023-05-21T05:21:48.022Z,100509.13
2023-05-21T05:24:51.205Z,100501.13
2023-05-21T05:27:54.310Z,100500.22
2023-05-21T05:30:56.887Z,100501.94
2023-05-21T05:34:00.954Z,100497.50
2023-05-21T05:37:04.555Z,100505.34
2023-05-21T05:40:08.220Z,100503.53
2023-05-21T05:43:13.506Z,100502.63
2023-05-21T05:46:16.155Z,100493.78
2023-05-21T05:49:18.594Z,100505.19
2023-05-21T05:52:21.294Z,100496.38
2023-05-21T05:55:25.253Z,100502.47
2023-05-21T05:58:27.884Z,100496.22
2023-05-21T06:01:50.531Z,100489.97
2023-05-21T06:04:53.204Z,100489.91
2023-05-21T06:07:55.754Z,100491.63
2023-05-21T06:10:58.406Z,100490.69
2023-05-21T06:14:02.020Z,100481.72
2023-05-21T06:17:04.847Z,100480.75
2023-05-21T06:20:09.467Z,100480.69
2023-05-21T06:23:13.076Z,100478.81
2023-05-21T06:26:19.307Z,100476.09
2023-05-21T06:29:24.017Z,100474.25
2023-05-21T06:32:26.543Z,100473.28
2023-05-21T06:35:29.584Z,100473.19
2023-05-21T06:38:32.295Z,100476.59
2023-05-21T06:41:36.568Z,100472.09
2023-05-21T06:44:56.336Z,100475.50
2023-05-21T06:48:04.652Z,100468.28
2023-05-21T06:51:08.172Z,100473.50
2023-05-21T06:54:10.975Z,100463.66
2023-05-21T06:57:16.297Z,100464.47
2023-05-21T07:00:19.118Z,100466.94
2023-05-21T07:03:21.626Z,100467.63
2023-05-21T07:06:24.100Z,100461.28
2023-05-21T07:09:26.569Z,100461.88
2023-05-21T07:12:29.245Z,100467.03
2023-05-21T07:15:32.057Z,100452.59
2023-05-21T07:18:38.977Z,100455.13
2023-05-21T07:21:41.505Z,100446.72
2023-05-21T07:24:44.339Z,100446.47
2023-05-21T07:27:47.821Z,100444.28
2023-05-21T07:30:51.832Z,100445.84
2023-05-21T07:33:59.747Z,100451.78
2023-05-21T07:37:05.537Z,100452.41
2023-05-21T07:40:08.507Z,100444.94
2023-05-21T07:43:12.940Z,100442.94
2023-05-21T07:46:16.703Z,100443.41
2023-05-21T07:49:20.836Z,100444.66
2023-05-21T07:52:24.164Z,100430.19
2023-05-21T07:55:26.802Z,100439.59
2023-05-21T07:58:31.712Z,100437.81
2023-05-21T08:01:37.492Z,100441.66
2023-05-21T08:04:41.404Z,100445.75
2023-05-21T08:07:46.438Z,100444.44
2023-05-21T08:10:49.416Z,100441.69
2023-05-21T08:13:53.472Z,100441.09
2023-05-21T08:16:57.268Z,100444.22
2023-05-21T08:19:59.835Z,100444.41
2023-05-21T08:23:04.283Z,100440.75
2023-05-21T08:26:16.759Z,100448.63
2023-05-21T08:29:19.500Z,100446.44
2023-05-21T08:32:23.291Z,100450.38
2023-05-21T08:35:26.160Z,100446.81
2023-05-21T08:38:34.519Z,100440.22
2023-05-21T08:42:08.105Z,100444.00
2023-05-21T08:45:12.080Z,100438.50
2023-05-21T08:48:14.740Z,100446.00
2023-05-21T08:51:17.369Z,100434.97
2023-05-21T08:54:29.758Z,100439.56
2023-05-21T08:57:51.204Z,100448.41
2023-05-21T09:00:56.138Z,100442.06
2023-05-21T09:04:16.239Z,100440.19
2023-05-21T09:07:30.800Z,100439.22
2023-05-21T09:10:50.887Z,100438.28
2023-05-21T09:13:55.030Z,100440.16
2023-05-21T09:17:05.250Z,100432.53
2023-05-21T09:20:17.750Z,100428.28
2023-05-21T09:23:29.047Z,100428.88
2023-05-21T09:26:31.750Z,100425.75
2023-05-21T09:29:38.881Z,100422.91
2023-05-21T09:32:44.011Z,100430.22
2023-05-21T09:35:47.435Z,100440.78
2023-05-21T09:38:54.829Z,100438.72
2023-05-21T09:41:58.138Z,100434.81
2023-05-21T09:45:02.150Z,100433.72
2023-05-21T09:48:06.004Z,100430.59
2023-05-21T09:51:08.894Z,100431.81
2023-05-21T09:54:11.525Z,100435.22
2023-05-21T09:57:14.372Z,100425.41
2023-05-21T10:00:28.128Z,100427.16
2023-05-21T10:03:30.625Z,100432.13
2023-05-21T10:06:33.873Z,100431.53
2023-05-21T10:09:36.527Z,100418.22
2023-05-21T10:12:39.127Z,100420.28
2023-05-21T10:15:44.142Z,100405.69
2023-05-21T10:18:47.234Z,100405.16
2023-05-21T10:21:51.460Z,100407.69
2023-05-21T10:24:55.112Z,100408.88
2023-05-21T10:27:57.629Z,100394.63
2023-05-21T10:31:00.156Z,100403.09
2023-05-21T10:34:02.960Z,100394.97
2023-05-21T10:37:05.573Z,100410.03
2023-05-21T10:40:08.504Z,100404.75
2023-05-21T10:43:18.454Z,100395.56
2023-05-21T10:46:46.225Z,100389.44
2023-05-21T10:50:16.419Z,100391.66
2023-05-21T10:53:29.566Z,100394.75
2023-05-21T10:57:09.429Z,100390.06
2023-05-21T11:00:14.926Z,100400.94
2023-05-21T11:03:17.753Z,100392.28
2023-05-21T11:06:25.464Z,100380.41
2023-05-21T11:09:28.051Z,100389.88
2023-05-21T11:12:37.238Z,100390.50
2023-05-21T11:15:58.119Z,100385.31
2023-05-21T11:19:00.870Z,100391.00
2023-05-21T11:22:09.142Z,100392.13
2023-05-21T11:25:13.050Z,100387.16
2023-05-21T11:28:16.714Z,100384.09
2023-05-21T11:31:30.588Z,100386.09
2023-05-21T11:34:43.682Z,100380.53
2023-05-21T11:37:46.858Z,100381.31
2023-05-21T11:40:56.017Z,100369.03
2023-05-21T11:44:01.676Z,100367.38
2023-05-21T11:47:05.096Z,100373.13
2023-05-21T11:50:12.005Z,100369.56
2023-05-21T11:53:14.716Z,100367.06
2023-05-21T11:56:18.464Z,100378.72
2023-05-21T11:59:24.048Z,100370.41
2023-05-21T12:02:28.621Z,100363.88
2023-05-21T12:05:31.315Z,100366.25
2023-05-21T12:08:33.836Z,100351.13
2023-05-21T12:11:42.466Z,100362.47
2023-05-21T12:15:12.571Z,100344.28
2023-05-21T12:18:16.751Z,100343.22
2023-05-21T12:21:19.515Z,100353.28
2023-05-21T12:24:23.019Z,100347.97
2023-05-21T12:27:28.700Z,100344.16
2023-05-21T12:30:31.481Z,100347.66
2023-05-21T12:33:36.712Z,100343.38
2023-05-21T12:36:39.546Z,100333.69
2023-05-21T12:39:43.940Z,100337.91
2023-05-21T12:42:46.498Z,100329.59
2023-05-21T12:45:49.179Z,100321.66
2023-05-21T12:49:01.155Z,100326.13
2023-05-21T12:52:14.144Z,100318.22
2023-05-21T12:55:17.213Z,100317.94
2023-05-21T12:58:25.450Z,100305.16
2023-05-21T13:01:27.859Z,100318.03
2023-05-21T13:04:30.960Z,100311.53
2023-05-21T13:07:38.287Z,100298.41
2023-05-21T13:10:41.011Z,100305.16
2023-05-21T13:13:54.998Z,100301.00
2023-05-21T13:17:16.167Z,100292.66
2023-05-21T13:20:34.400Z,100288.00
2023-05-21T13:23:36.986Z,100288.50
2023-05-21T13:26:39.405Z,100280.34
2023-05-21T13:29:41.780Z,100282.34
2023-05-21T13:32:44.512Z,100274.47
2023-05-21T13:35:51.425Z,100281.19
2023-05-21T13:38:55.798Z,100271.34
2023-05-21T13:41:59.350Z,100278.09
2023-05-21T13:45:01.760Z,100269.38
2023-05-21T13:48:04.578Z,100269.31
2023-05-21T13:51:07.087Z,100262.81
2023-05-21T13:54:09.883Z,100271.91
2023-05-21T13:57:12.666Z,100272.41
2023-05-21T14:00:15.929Z,100258.00
2023-05-21T14:03:18.876Z,100253.31
2023-05-21T14:06:21.463Z,100251.41
2023-05-21T14:09:27.310Z,100262.19
2023-05-21T14:12:29.890Z,100259.03
2023-05-21T14:15:32.704Z,100252.56
2023-05-21T14:18:36.012Z,100243.72
2023-05-21T14:21:38.485Z,100247.44
2023-05-21T14:24:41.260Z,100246.47
2023-05-21T14:27:43.832Z,100245.06
2023-05-21T14:30:46.417Z,100248.06
2023-05-21T14:33:48.970Z,100240.78
2023-05-21T14:36:51.513Z,100239.81
2023-05-21T14:39:54.017Z,100242.53
2023-05-21T14:42:56.622Z,100239.94
2023-05-21T14:45:59.072Z,100240.50
2023-05-21T14:49:01.721Z,100229.25
2023-05-21T14:52:04.533Z,100234.22
2023-05-21T14:55:07.319Z,100236.34
2023-05-21T14:58:09.986Z,100227.72
2023-05-21T15:01:12.549Z,100230.81
2023-05-21T15:04:15.088Z,100230.06
2023-05-21T15:07:17.700Z,100222.34
2023-05-21T15:10:20.538Z,100219.22
2023-05-21T15:13:23.013Z,100217.53
2023-05-21T15:16:25.647Z,100224.47
2023-05-21T15:19:28.358Z,100215.91
2023-05-21T15:22:31.793Z,100210.41
2023-05-21T15:25:37.031Z,100219.72
2023-05-21T15:28:40.365Z,100214.97
2023-05-21T15:31:42.873Z,100226.50
2023-05-21T15:34:45.545Z,100217.91
2023-05-21T15:37:48.103Z,100215.94
2023-05-21T15:40:51.072Z,100212.13
2023-05-21T15:43:53.576Z,100211.84
2023-05-21T15:46:56.117Z,100218.56
2023-05-21T15:50:01.633Z,100214.69
2023-05-21T15:53:04.791Z,100216.03
2023-05-21T15:56:09.077Z,100219.66
2023-05-21T15:59:13.205Z,100222.63
2023-05-21T16:02:16.668Z,100228.31
2023-05-21T16:05:19.240Z,100224.34
2023-05-21T16:08:21.874Z,100223.59
2023-05-21T16:11:25.048Z,100225.66
2023-05-21T16:14:29.530Z,100214.50
2023-05-21T16:17:31.991Z,100224.13
2023-05-21T16:20:35.498Z,100214.31
2023-05-21T16:23:38.774Z,100224.53
2023-05-21T16:26:41.517Z,100222.13
2023-05-21T16:29:44.608Z,100223.81
2023-05-21T16:32:47.028Z,100226.38
2023-05-21T16:35:49.624Z,100228.66
2023-05-21T16:38:52.364Z,100231.13
2023-05-21T16:41:59.576Z,100237.94
2023-05-21T16:45:02.307Z,100238.19
2023-05-21T16:48:05.222Z,100234.16
2023-05-21T16:51:07.820Z,100237.03
2023-05-21T16:54:10.977Z,100237.16
2023-05-21T16:57:13.628Z,100244.34
2023-05-21T17:00:16.400Z,100238.22
2023-05-21T17:03:19.018Z,100245.75
2023-05-21T17:06:21.815Z,100241.50
2023-05-21T17:09:24.621Z,100242.78
2023-05-21T17:12:27.986Z,100242.16
2023-05-21T17:15:30.766Z,100249.25
2023-05-21T17:18:33.223Z,100241.22
2023-05-21T17:21:35.900Z,100246.25
2023-05-21T17:24:38.607Z,100250.41
2023-05-21T17:27:40.986Z,100248.44
2023-05-21T17:30:43.551Z,100238.66
2023-05-21T17:33:46.102Z,100248.78
2023-05-21T17:36:49.109Z,100251.69
2023-05-21T17:39:51.603Z,100239.75
2023-05-21T17:42:54.295Z,100244.44
2023-05-21T17:45:56.814Z,100239.88
2023-05-21T17:48:59.438Z,100245.28
2023-05-21T17:52:04.534Z,100243.25
2023-05-21T17:55:08.044Z,100239.34
2023-05-21T17:58:11.099Z,100248.50
2023-05-21T18:01:13.771Z,100244.84
2023-05-21T18:04:16.313Z,100251.28
2023-05-21T18:07:18.983Z,100249.13
2023-05-21T18:10:21.671Z,100246.25
2023-05-21T18:13:24.139Z,100242.03
2023-05-21T18:16:26.775Z,100240.53
2023-05-21T18:19:30.533Z,100242.63
2023-05-21T18:22:33.203Z,100241.31
2023-05-21T18:25:35.907Z,100243.31
2023-05-21T18:28:38.521Z,100237.66
2023-05-21T18:31:41.161Z,100236.25
2023-05-21T18:34:44.084Z,100247.22
2023-05-21T18:37:48.714Z,100250.13
2023-05-21T18:40:51.693Z,100242.53
2023-05-21T18:43:54.123Z,100242.81
2023-05-21T18:46:57.875Z,100250.34
2023-05-21T18:50:00.884Z,100250.66
2023-05-21T18:53:03.419Z,100256.38
2023-05-21T18:56:07.558Z,100254.09
2023-05-21T18:59:10.194Z,100250.63
2023-05-21T19:02:13.748Z,100265.16
2023-05-21T19:05:16.468Z,100261.69
2023-05-21T19:08:18.993Z,100268.16
2023-05-21T19:11:23.541Z,100268.38
2023-05-21T19:14:26.285Z,100260.63
2023-05-21T19:17:28.914Z,100274.91
2023-05-21T19:20:31.361Z,100275.09
2023-05-21T19:23:41.327Z,100280.63
2023-05-21T19:26:47.234Z,100276.41
2023-05-21T19:29:49.924Z,100280.09
2023-05-21T19:32:52.993Z,100289.06
2023-05-21T19:35:55.720Z,100291.75
2023-05-21T19:38:58.877Z,100291.94
2023-05-21T19:42:01.408Z,100294.78
2023-05-21T19:45:06.985Z,100285.25
2023-05-21T19:48:09.707Z,100292.34
2023-05-21T19:51:12.197Z,100288.03
2023-05-21T19:54:14.646Z,100294.31
2023-05-21T19:57:17.212Z,100290.00
2023-05-21T20:00:20.116Z,100297.09
2023-05-21T20:03:24.360Z,100289.34
2023-05-21T20:06:27.337Z,100288.56
2023-05-21T20:09:29.842Z,100297.47
2023-05-21T20:12:32.521Z,100289.66
2023-05-21T20:15:35.847Z,100294.94
2023-05-21T20:18:39.820Z,100295.91
2023-05-21T20:21:42.283Z,100291.56
2023-05-21T20:24:44.759Z,100295.09
2023-05-21T20:27:47.161Z,100301.44
2023-05-21T20:30:54.201Z,100300.41
2023-05-21T20:33:56.825Z,100297.84
2023-05-21T20:36:59.126Z,100289.00
2023-05-21T20:40:02.132Z,100283.75
2023-05-21T20:43:05.353Z,100290.81
2023-05-21T20:46:08.265Z,100288.03
2023-05-21T20:49:10.965Z,100286.09
2023-05-21T20:52:14.532Z,100290.59
2023-05-21T20:55:17.111Z,100291.50
2023-05-21T20:58:19.398Z,100292.44
2023-05-21T21:01:22.672Z,100295.09
2023-05-21T21:04:25.876Z,100288.00
2023-05-21T21:07:31.994Z,100288.03
2023-05-21T21:10:38.820Z,100284.56
2023-05-21T21:13:41.905Z,100290.63
2023-05-21T21:16:44.483Z,100289.78
2023-05-21T21:19:49.060Z,100289.72
2023-05-21T21:22:51.642Z,100290.50
2023-05-21T21:25:54.503Z,100290.56
2023-05-21T21:28:57.190Z,100295.84
2023-05-21T21:31:59.693Z,100292.22
2023-05-21T21:35:02.204Z,100294.84
2023-05-21T21:38:07.220Z,100297.38
2023-05-21T21:41:09.756Z,100308.84
2023-05-21T21:44:12.173Z,100316.75
2023-05-21T21:47:14.503Z,100312.19
2023-05-21T21:50:17.003Z,100316.63
2023-05-21T21:53:19.250Z,100322.78
2023-05-21T21:56:22.182Z,100313.97
2023-05-21T21:59:27.159Z,100321.94
2023-05-21T22:02:29.675Z,100310.56
2023-05-21T22:05:32.737Z,100314.97
2023-05-21T22:08:35.311Z,100313.28
2023-05-21T22:11:40.249Z,100320.19
2023-05-21T22:14:43.862Z,100319.47
2023-05-21T22:17:47.424Z,100328.31
2023-05-21T22:20:51.437Z,100345.19
2023-05-21T22:23:53.961Z,100327.44
2023-05-21T22:26:56.371Z,100330.09
2023-05-21T22:29:58.959Z,100332.81
2023-05-21T22:33:01.810Z,100328.41
2023-05-21T22:36:04.470Z,100340.03
2023-05-21T22:39:07.057Z,100316.19
2023-05-21T22:42:09.365Z,100327.78
2023-05-21T22:45:11.856Z,100333.22
2023-05-21T22:48:14.443Z,100329.69
2023-05-21T22:51:16.870Z,100322.59
2023-05-21T22:54:19.271Z,100327.25
2023-05-21T22:57:21.873Z,100325.63
2023-05-21T23:00:24.748Z,100323.78
2023-05-21T23:03:27.341Z,100323.09
2023-05-21T23:06:29.575Z,100331.97
2023-05-21T23:09:31.971Z,100336.34
2023-05-21T23:12:34.472Z,100327.53
2023-05-21T23:15:38.977Z,100327.53
2023-05-21T23:18:41.564Z,100328.56
2023-05-21T23:21:44.053Z,100327.69
2023-05-21T23:24:46.950Z,100324.28
2023-05-21T23:27:49.538Z,100319.91
2023-05-21T23:30:51.972Z,100324.41
2023-05-21T23:33:54.455Z,100327.06
2023-05-21T23:36:59.416Z,100308.72
2023-05-21T23:40:03.149Z,100311.44
2023-05-21T23:43:05.439Z,100312.31
2023-05-21T23:46:07.909Z,100311.41
2023-05-21T23:49:10.430Z,100308.81
2023-05-21T23:52:13.587Z,100303.47
2023-05-21T23:55:16.397Z,100302.59
2023-05-21T23:58:19.009Z,100306.16
